sensor_id;sensor_type;location;lat;lon;timestamp;pressure;altitude;pressure_sealevel;temperature;humidity
13015;BME280;6573;57.696;11.950;2023-03-08T00:02:27;98994.75;;;1.92;100.00
13015;BME280;6573;57.696;11.950;2023-03-08T00:05:01;98897.00;;;1.26;100.00
13015;BME280;6573;57.696;11.950;2023-03-08T00:07:37;99031.97;;;2.15;100.00
13015;BME280;6573;57.696;11.950;2023-03-08T00:10:09;99013.78;;;1.88;100.00
13015;BME280;6573;57.696;11.950;2023-03-08T00:12:40;98959.28;;;1.67;100.00
13015;BME280;6573;57.696;11.950;2023-03-08T00:15:14;99038.88;;;2.10;100.00
13015;BME280;6573;57.696;11.950;2023-03-08T00:17:46;98931.59;;;1.48;100.00
13015;BME280;6573;57.696;11.950;2023-03-08T00:20:14;98962.75;;;1.66;100.00
13015;BME280;6573;57.696;11.950;2023-03-08T00:22:49;99050.97;;;2.05;100.00
13015;BME280;6573;57.696;11.950;2023-03-08T00:25:18;98967.81;;;1.42;100.00
13015;BME280;6573;57.696;11.950;2023-03-08T00:27:48;99064.78;;;1.95;100.00
13015;BME280;6573;57.696;11.950;2023-03-08T00:30:17;98935.03;;;1.44;100.00
13015;BME280;6573;57.696;11.950;2023-03-08T00:32:45;99036.19;;;1.72;100.00
13015;BME280;6573;57.696;11.950;2023-03-08T00:35:14;98997.19;;;1.41;100.00
13015;BME280;6573;57.696;11.950;2023-03-08T00:37:48;99076.00;;;1.98;100.00
13015;BME280;6573;57.696;11.950;2023-03-08T00:40:19;99073.41;;;1.97;100.00
13015;BME280;6573;57.696;11.950;2023-03-08T00:42:51;99028.44;;;1.83;100.00
13015;BME280;6573;57.696;11.950;2023-03-08T00:45:19;99080.38;;;2.10;100.00
13015;BME280;6573;57.696;11.950;2023-03-08T00:47:51;99087.28;;;2.11;100.00
13015;BME280;6573;57.696;11.950;2023-03-08T00:50:23;99045.72;;;1.84;100.00
13015;BME280;6573;57.696;11.950;2023-03-08T00:52:52;99016.25;;;1.64;100.00
13015;BME280;6573;57.696;11.950;2023-03-08T00:55:23;98953.97;;;1.37;100.00
13015;BME280;6573;57.696;11.950;2023-03-08T00:57:54;99097.69;;;2.17;100.00
13015;BME280;6573;57.696;11.950;2023-03-08T01:00:26;99076.88;;;1.93;100.00
13015;BME280;6573;57.696;11.950;2023-03-08T01:02:56;99109.78;;;2.12;100.00
13015;BME280;6573;57.696;11.950;2023-03-08T01:05:30;99094.19;;;2.06;100.00
13015;BME280;6573;57.696;11.950;2023-03-08T01:08:04;99114.91;;;2.06;100.00
13015;BME280;6573;57.696;11.950;2023-03-08T01:10:35;99075.16;;;1.98;100.00
13015;BME280;6573;57.696;11.950;2023-03-08T01:13:07;99073.41;;;1.97;100.00
13015;BME280;6573;57.696;11.950;2023-03-08T01:15:39;99031.88;;;1.76;100.00
13015;BME280;6573;57.696;11.950;2023-03-08T01:18:08;99103.66;;;1.95;100.00
13015;BME280;6573;57.696;11.950;2023-03-08T01:20:36;99020.47;;;1.36;100.00
13015;BME280;6573;57.696;11.950;2023-03-08T01:23:05;99107.97;;;1.99;100.00
13015;BME280;6573;57.696;11.950;2023-03-08T01:25:37;99030.03;;;1.51;100.00
13015;BME280;6573;57.696;11.950;2023-03-08T01:28:15;99075.00;;;1.65;100.00
13015;BME280;6573;57.696;11.950;2023-03-08T01:30:44;99118.31;;;1.87;100.00
13015;BME280;6573;57.696;11.950;2023-03-08T01:33:13;99082.00;;;1.81;100.00
13015;BME280;6573;57.696;11.950;2023-03-08T01:35:45;99028.28;;;1.44;100.00
13015;BME280;6573;57.696;11.950;2023-03-08T01:38:14;99088.91;;;1.77;100.00
13015;BME280;6573;57.696;11.950;2023-03-08T01:40:45;99114.88;;;1.94;100.00
13015;BME280;6573;57.696;11.950;2023-03-08T01:43:23;99128.69;;;1.90;100.00
13015;BME280;6573;57.696;11.950;2023-03-08T01:46:05;99083.69;;;1.79;100.00
13015;BME280;6573;57.696;11.950;2023-03-08T01:48:39;99118.31;;;1.90;100.00
13015;BME280;6573;57.696;11.950;2023-03-08T01:51:15;99036.09;;;1.53;100.00
13015;BME280;6573;57.696;11.950;2023-03-08T01:53:53;99118.31;;;1.81;100.00
13015;BME280;6573;57.696;11.950;2023-03-08T01:56:25;99086.97;;;1.42;100.00
13015;BME280;6573;57.696;11.950;2023-03-08T01:58:59;98998.69;;;0.96;100.00
13015;BME280;6573;57.696;11.950;2023-03-08T02:01:30;99063.53;;;1.20;100.00
13015;BME280;6573;57.696;11.950;2023-03-08T02:04:04;99111.19;;;1.44;100.00
13015;BME280;6573;57.696;11.950;2023-03-08T02:06:36;99135.34;;;1.41;100.00
13015;BME280;6573;57.696;11.950;2023-03-08T02:09:07;99142.38;;;1.59;100.00
13015;BME280;6573;57.696;11.950;2023-03-08T02:11:43;99135.44;;;1.58;100.00
13015;BME280;6573;57.696;11.950;2023-03-08T02:14:13;99143.13;;;1.41;100.00
13015;BME280;6573;57.696;11.950;2023-03-08T02:16:45;99058.84;;;0.68;100.00
13015;BME280;6573;57.696;11.950;2023-03-08T02:19:22;99067.78;;;1.06;100.00
13015;BME280;6573;57.696;11.950;2023-03-08T02:21:52;99154.34;;;1.45;100.00
13015;BME280;6573;57.696;11.950;2023-03-08T02:24:33;99163.88;;;1.50;100.00
13015;BME280;6573;57.696;11.950;2023-03-08T02:27:06;99142.38;;;1.65;100.00
13015;BME280;6573;57.696;11.950;2023-03-08T02:29:46;99021.06;;;0.88;100.00
13015;BME280;6573;57.696;11.950;2023-03-08T02:32:14;99159.78;;;1.81;100.00
13015;BME280;6573;57.696;11.950;2023-03-08T02:34:43;99171.97;;;2.03;100.00
13015;BME280;6573;57.696;11.950;2023-03-08T02:37:15;98931.19;;;0.63;100.00
13015;BME280;6573;57.696;11.950;2023-03-08T02:39:48;99159.81;;;1.96;100.00
13015;BME280;6573;57.696;11.950;2023-03-08T02:42:21;99182.19;;;1.79;100.00
13015;BME280;6573;57.696;11.950;2023-03-08T02:44:57;99153.47;;;1.44;100.00
13015;BME280;6573;57.696;11.950;2023-03-08T02:47:26;99124.81;;;1.18;100.00
13015;BME280;6573;57.696;11.950;2023-03-08T02:49:55;99190.88;;;1.81;100.00
13015;BME280;6573;57.696;11.950;2023-03-08T02:52:24;99166.56;;;1.64;100.00
13015;BME280;6573;57.696;11.950;2023-03-08T02:54:54;99190.78;;;1.72;100.00
13015;BME280;6573;57.696;11.950;2023-03-08T02:57:22;99199.47;;;1.77;100.00
13015;BME280;6573;57.696;11.950;2023-03-08T02:59:51;99177.88;;;1.73;100.00
13015;BME280;6573;57.696;11.950;2023-03-08T03:02:20;99199.44;;;1.74;100.00
13015;BME280;6573;57.696;11.950;2023-03-08T03:04:49;99150.72;;;1.18;100.00
13015;BME280;6573;57.696;11.950;2023-03-08T03:07:17;99179.44;;;1.52;100.00
13015;BME280;6573;57.696;11.950;2023-03-08T03:09:46;99164.81;;;1.60;100.00
13015;BME280;6573;57.696;11.950;2023-03-08T03:12:15;99192.53;;;1.73;100.00
13015;BME280;6573;57.696;11.950;2023-03-08T03:14:45;99208.09;;;1.73;100.00
13015;BME280;6573;57.696;11.950;2023-03-08T03:17:13;99218.47;;;1.73;100.00
13015;BME280;6573;57.696;11.950;2023-03-08T03:19:42;99217.53;;;1.65;100.00
13015;BME280;6573;57.696;11.950;2023-03-08T03:22:14;99128.38;;;1.33;100.00
13015;BME280;6573;57.696;11.950;2023-03-08T03:24:44;99190.00;;;1.80;100.00
13015;BME280;6573;57.696;11.950;2023-03-08T03:27:13;99215.03;;;1.77;100.00
13015;BME280;6573;57.696;11.950;2023-03-08T03:29:43;99199.41;;;1.68;100.00
13015;BME280;6573;57.696;11.950;2023-03-08T03:32:12;99199.53;;;1.86;100.00
13015;BME280;6573;57.696;11.950;2023-03-08T03:34:41;99224.50;;;1.70;100.00
13015;BME280;6573;57.696;11.950;2023-03-08T03:37:09;99208.69;;;1.36;100.00
13015;BME280;6573;57.696;11.950;2023-03-08T03:39:38;99187.19;;;1.52;100.00
13015;BME280;6573;57.696;11.950;2023-03-08T03:42:08;99238.53;;;2.07;100.00
13015;BME280;6573;57.696;11.950;2023-03-08T03:44:38;99194.41;;;2.01;100.00
13015;BME280;6573;57.696;11.950;2023-03-08T03:47:08;99080.13;;;1.53;100.00
13015;BME280;6573;57.696;11.950;2023-03-08T03:49:37;99158.25;;;2.25;100.00
13015;BME280;6573;57.696;11.950;2023-03-08T03:52:05;99149.47;;;1.93;100.00
13015;BME280;6573;57.696;11.950;2023-03-08T03:54:34;99176.91;;;1.64;100.00
13015;BME280;6573;57.696;11.950;2023-03-08T03:57:08;99153.44;;;1.40;100.00
13015;BME280;6573;57.696;11.950;2023-03-08T03:59:36;99213.47;;;2.03;100.00
13015;BME280;6573;57.696;11.950;2023-03-08T04:02:05;99239.53;;;2.30;100.00
13015;BME280;6573;57.696;11.950;2023-03-08T04:04:39;99236.13;;;2.37;100.00
13015;BME280;6573;57.696;11.950;2023-03-08T04:07:08;99239.47;;;2.18;100.00
13015;BME280;6573;57.696;11.950;2023-03-08T04:09:38;99260.13;;;2.06;100.00
13015;BME280;6573;57.696;11.950;2023-03-08T04:12:07;99237.63;;;1.99;100.00
13015;BME280;6573;57.696;11.950;2023-03-08T04:14:35;99174.09;;;1.32;100.00
13015;BME280;6573;57.696;11.950;2023-03-08T04:17:07;99265.03;;;1.64;100.00
13015;BME280;6573;57.696;11.950;2023-03-08T04:19:37;99247.78;;;1.69;100.00
13015;BME280;6573;57.696;11.950;2023-03-08T04:22:07;99190.22;;;0.99;100.00
13015;BME280;6573;57.696;11.950;2023-03-08T04:24:35;99277.06;;;1.56;100.00
13015;BME280;6573;57.696;11.950;2023-03-08T04:27:04;99191.03;;;0.91;100.00
13015;BME280;6573;57.696;11.950;2023-03-08T04:29:33;99263.72;;;1.13;100.00
13015;BME280;6573;57.696;11.950;2023-03-08T04:32:01;99264.69;;;1.24;100.00
13015;BME280;6573;57.696;11.950;2023-03-08T04:34:29;99282.28;;;1.62;100.00
13015;BME280;6573;57.696;11.950;2023-03-08T04:36:58;99218.09;;;1.27;100.00
13015;BME280;6573;57.696;11.950;2023-03-08T04:39:29;99223.44;;;1.46;100.00
13015;BME280;6573;57.696;11.950;2023-03-08T04:41:57;99297.22;;;1.88;100.00
13015;BME280;6573;57.696;11.950;2023-03-08T04:44:26;99296.38;;;1.91;100.00
13015;BME280;6573;57.696;11.950;2023-03-08T04:46:55;99304.13;;;1.92;100.00
13015;BME280;6573;57.696;11.950;2023-03-08T04:49:25;99313.38;;;1.62;100.00
13015;BME280;6573;57.696;11.950;2023-03-08T04:51:54;99279.56;;;1.44;100.00
13015;BME280;6573;57.696;11.950;2023-03-08T04:54:22;99294.09;;;1.29;100.00
13015;BME280;6573;57.696;11.950;2023-03-08T04:56:53;99326.84;;;1.24;100.00
13015;BME280;6573;57.696;11.950;2023-03-08T04:59:21;99318.19;;;1.22;100.00
13015;BME280;6573;57.696;11.950;2023-03-08T05:01:49;99225.31;;;0.69;100.00
13015;BME280;6573;57.696;11.950;2023-03-08T05:04:18;99226.19;;;0.69;100.00
13015;BME280;6573;57.696;11.950;2023-03-08T05:06:46;99317.59;;;1.48;100.00
13015;BME280;6573;57.696;11.950;2023-03-08T05:09:15;99233.13;;;0.73;100.00
13015;BME280;6573;57.696;11.950;2023-03-08T05:11:43;99251.50;;;1.02;100.00
13015;BME280;6573;57.696;11.950;2023-03-08T05:14:13;99262.97;;;1.23;100.00
13015;BME280;6573;57.696;11.950;2023-03-08T05:16:42;99325.38;;;1.51;100.00
13015;BME280;6573;57.696;11.950;2023-03-08T05:19:10;99307.22;;;1.48;100.00
13015;BME280;6573;57.696;11.950;2023-03-08T05:21:39;99172.00;;;0.87;100.00
13015;BME280;6573;57.696;11.950;2023-03-08T05:24:08;99226.66;;;1.17;100.00
13015;BME280;6573;57.696;11.950;2023-03-08T05:26:37;99285.50;;;1.37;100.00
13015;BME280;6573;57.696;11.950;2023-03-08T05:29:06;99321.94;;;1.52;100.00
13015;BME280;6573;57.696;11.950;2023-03-08T05:31:37;99259.34;;;1.09;100.00
13015;BME280;6573;57.696;11.950;2023-03-08T05:34:05;99328.75;;;1.41;100.00
13015;BME280;6573;57.696;11.950;2023-03-08T05:36:37;99238.09;;;0.58;100.00
13015;BME280;6573;57.696;11.950;2023-03-08T05:39:05;99283.84;;;0.59;100.00
13015;BME280;6573;57.696;11.950;2023-03-08T05:41:34;99301.22;;;0.71;100.00
13015;BME280;6573;57.696;11.950;2023-03-08T05:44:03;99351.25;;;0.73;100.00
13015;BME280;6573;57.696;11.950;2023-03-08T05:46:32;99345.16;;;0.66;100.00
13015;BME280;6573;57.696;11.950;2023-03-08T05:49:03;99282.41;;;0.15;100.00
13015;BME280;6573;57.696;11.950;2023-03-08T05:51:32;99341.63;;;0.61;100.00
13015;BME280;6573;57.696;11.950;2023-03-08T05:54:10;99351.16;;;0.63;100.00
13015;BME280;6573;57.696;11.950;2023-03-08T05:56:38;99343.34;;;0.59;100.00
13015;BME280;6573;57.696;11.950;2023-03-08T05:59:06;99268.56;;;0.13;100.00
13015;BME280;6573;57.696;11.950;2023-03-08T06:01:35;99288.19;;;-0.02;100.00
13015;BME280;6573;57.696;11.950;2023-03-08T06:04:05;99360.63;;;0.61;100.00
13015;BME280;6573;57.696;11.950;2023-03-08T06:06:33;99234.88;;;0.07;100.00
13015;BME280;6573;57.696;11.950;2023-03-08T06:09:02;99362.34;;;0.61;100.00
13015;BME280;6573;57.696;11.950;2023-03-08T06:11:31;99358.97;;;0.68;100.00
13015;BME280;6573;57.696;11.950;2023-03-08T06:14:01;99371.84;;;0.65;100.00
13015;BME280;6573;57.696;11.950;2023-03-08T06:16:34;99232.75;;;-0.23;100.00
13015;BME280;6573;57.696;11.950;2023-03-08T06:19:29;99301.53;;;0.29;100.00
13015;BME280;6573;57.696;11.950;2023-03-08T06:21:59;99352.22;;;0.79;100.00
13015;BME280;6573;57.696;11.950;2023-03-08T06:24:34;99295.94;;;0.61;100.00
13015;BME280;6573;57.696;11.950;2023-03-08T06:27:07;99340.41;;;1.02;100.00
13015;BME280;6573;57.696;11.950;2023-03-08T06:29:38;99361.25;;;1.14;100.00
13015;BME280;6573;57.696;11.950;2023-03-08T06:32:07;99382.13;;;1.26;100.00
13015;BME280;6573;57.696;11.950;2023-03-08T06:34:40;99377.09;;;1.42;100.00
13015;BME280;6573;57.696;11.950;2023-03-08T06:37:08;99369.97;;;1.22;100.00
13015;BME280;6573;57.696;11.950;2023-03-08T06:39:36;99335.09;;;0.90;100.00
13015;BME280;6573;57.696;11.950;2023-03-08T06:42:06;99379.38;;;1.13;100.00
13015;BME280;6573;57.696;11.950;2023-03-08T06:44:37;99315.50;;;0.43;100.00
13015;BME280;6573;57.696;11.950;2023-03-08T06:47:09;99228.81;;;-0.54;100.00
13015;BME280;6573;57.696;11.950;2023-03-08T06:49:39;99264.47;;;-0.32;100.00
13015;BME280;6573;57.696;11.950;2023-03-08T06:52:10;99365.16;;;0.18;100.00
13015;BME280;6573;57.696;11.950;2023-03-08T06:54:40;99391.22;;;0.30;100.00
13015;BME280;6573;57.696;11.950;2023-03-08T06:57:09;99365.69;;;-0.03;100.00
13015;BME280;6573;57.696;11.950;2023-03-08T06:59:40;99361.53;;;0.07;100.00
13015;BME280;6573;57.696;11.950;2023-03-08T07:02:10;99360.06;;;0.22;100.00
13015;BME280;6573;57.696;11.950;2023-03-08T07:04:47;99398.22;;;0.37;100.00
13015;BME280;6573;57.696;11.950;2023-03-08T07:07:16;99341.47;;;-0.10;100.00
13015;BME280;6573;57.696;11.950;2023-03-08T07:09:47;99330.41;;;0.00;100.00
13015;BME280;6573;57.696;11.950;2023-03-08T07:12:16;99333.94;;;0.06;100.00
13015;BME280;6573;57.696;11.950;2023-03-08T07:14:50;99419.31;;;0.65;100.00
13015;BME280;6573;57.696;11.950;2023-03-08T07:17:22;99284.06;;;0.10;100.00
13015;BME280;6573;57.696;11.950;2023-03-08T07:19:52;99323.16;;;0.32;100.00
13015;BME280;6573;57.696;11.950;2023-03-08T07:22:21;99384.13;;;0.78;100.00
13015;BME280;6573;57.696;11.950;2023-03-08T07:25:02;99330.25;;;0.47;100.00
13015;BME280;6573;57.696;11.950;2023-03-08T07:27:41;99357.22;;;0.67;100.00
13015;BME280;6573;57.696;11.950;2023-03-08T07:30:11;99338.13;;;0.56;100.00
13015;BME280;6573;57.696;11.950;2023-03-08T07:32:41;99391.09;;;0.84;100.00
13015;BME280;6573;57.696;11.950;2023-03-08T07:35:13;99338.16;;;0.59;100.00
13015;BME280;6573;57.696;11.950;2023-03-08T07:37:47;99346.97;;;0.73;100.00
13015;BME280;6573;57.696;11.950;2023-03-08T07:40:16;99252.28;;;0.18;100.00
13015;BME280;6573;57.696;11.950;2023-03-08T07:42:57;99411.19;;;1.01;100.00
13015;BME280;6573;57.696;11.950;2023-03-08T07:45:32;99427.88;;;1.27;100.00
13015;BME280;6573;57.696;11.950;2023-03-08T07:48:05;99390.69;;;1.22;100.00
13015;BME280;6573;57.696;11.950;2023-03-08T07:50:43;99316.00;;;0.79;100.00
13015;BME280;6573;57.696;11.950;2023-03-08T07:53:18;99342.16;;;1.03;100.00
13015;BME280;6573;57.696;11.950;2023-03-08T07:55:51;99428.66;;;1.20;100.00
13015;BME280;6573;57.696;11.950;2023-03-08T07:58:26;99407.53;;;0.87;100.00
13015;BME280;6573;57.696;11.950;2023-03-08T08:00:58;99447.44;;;1.04;100.00
13015;BME280;6573;57.696;11.950;2023-03-08T08:03:29;99399.63;;;0.77;100.00
13015;BME280;6573;57.696;11.950;2023-03-08T08:06:03;99385.63;;;0.62;100.00
13015;BME280;6573;57.696;11.950;2023-03-08T08:08:32;99422.09;;;0.79;100.00
13015;BME280;6573;57.696;11.950;2023-03-08T08:11:18;99429.03;;;0.83;100.00
13015;BME280;6573;57.696;11.950;2023-03-08T08:13:47;99469.03;;;1.03;100.00
13015;BME280;6573;57.696;11.950;2023-03-08T08:16:16;99466.44;;;1.03;100.00
13015;BME280;6573;57.696;11.950;2023-03-08T08:18:50;99320.25;;;0.13;100.00
13015;BME280;6573;57.696;11.950;2023-03-08T08:21:23;99290.63;;;-0.11;100.00
13015;BME280;6573;57.696;11.950;2023-03-08T08:23:53;99360.56;;;0.57;100.00
13015;BME280;6573;57.696;11.950;2023-03-08T08:26:28;99355.41;;;0.60;100.00
13015;BME280;6573;57.696;11.950;2023-03-08T08:28:58;99316.66;;;0.03;100.00
13015;BME280;6573;57.696;11.950;2023-03-08T08:31:29;99366.84;;;0.16;100.00
13015;BME280;6573;57.696;11.950;2023-03-08T08:34:02;99391.63;;;0.60;100.00
13015;BME280;6573;57.696;11.950;2023-03-08T08:36:36;99449.09;;;0.99;100.00
13015;BME280;6573;57.696;11.950;2023-03-08T08:39:10;99502.13;;;1.25;100.00
13015;BME280;6573;57.696;11.950;2023-03-08T08:41:47;99400.47;;;0.74;100.00
13015;BME280;6573;57.696;11.950;2023-03-08T08:44:17;99484.19;;;1.41;100.00
13015;BME280;6573;57.696;11.950;2023-03-08T08:46:50;99373.00;;;0.85;100.00
13015;BME280;6573;57.696;11.950;2023-03-08T08:49:24;99373.19;;;1.00;100.00
13015;BME280;6573;57.696;11.950;2023-03-08T08:51:55;99276.78;;;0.47;100.00
13015;BME280;6573;57.696;11.950;2023-03-08T08:54:26;99428.97;;;1.48;100.00
13015;BME280;6573;57.696;11.950;2023-03-08T08:56:56;99295.03;;;0.58;100.00
13015;BME280;6573;57.696;11.950;2023-03-08T08:59:27;99414.88;;;1.21;100.00
13015;BME280;6573;57.696;11.950;2023-03-08T09:01:56;99466.28;;;1.62;100.00
13015;BME280;6573;57.696;11.950;2023-03-08T09:04:30;99471.81;;;1.93;100.00
13015;BME280;6573;57.696;11.950;2023-03-08T09:07:03;99354.53;;;1.31;100.00
13015;BME280;6573;57.696;11.950;2023-03-08T09:09:39;99458.97;;;2.07;100.00
13015;BME280;6573;57.696;11.950;2023-03-08T09:12:11;99279.09;;;0.98;100.00
13015;BME280;6573;57.696;11.950;2023-03-08T09:14:41;99392.22;;;1.85;100.00
13015;BME280;6573;57.696;11.950;2023-03-08T09:17:13;99314.16;;;1.52;100.00
13015;BME280;6573;57.696;11.950;2023-03-08T09:19:46;99473.25;;;2.57;100.00
13015;BME280;6573;57.696;11.950;2023-03-08T09:22:18;99439.56;;;2.65;100.00
13015;BME280;6573;57.696;11.950;2023-03-08T09:24:48;99294.75;;;2.11;100.00
13015;BME280;6573;57.696;11.950;2023-03-08T09:27:20;99301.72;;;2.15;100.00
13015;BME280;6573;57.696;11.950;2023-03-08T09:29:49;99280.72;;;1.82;100.00
13015;BME280;6573;57.696;11.950;2023-03-08T09:32:33;99473.44;;;2.91;100.00
13015;BME280;6573;57.696;11.950;2023-03-08T09:35:07;99355.38;;;2.25;100.00
13015;BME280;6573;57.696;11.950;2023-03-08T09:37:42;99428.41;;;2.83;100.00
13015;BME280;6573;57.696;11.950;2023-03-08T09:40:22;99487.50;;;3.26;100.00
13015;BME280;6573;57.696;11.950;2023-03-08T09:43:01;99277.53;;;2.22;100.00
13015;BME280;6573;57.696;11.950;2023-03-08T09:46:21;99358.38;;;3.05;100.00
13015;BME280;6573;57.696;11.950;2023-03-08T09:49:04;99354.13;;;3.24;100.00
13015;BME280;6573;57.696;11.950;2023-03-08T09:52:03;99496.47;;;4.07;100.00
13015;BME280;6573;57.696;11.950;2023-03-08T09:54:52;99408.81;;;3.65;100.00
13015;BME280;6573;57.696;11.950;2023-03-08T09:57:56;99370.66;;;3.53;100.00
13015;BME280;6573;57.696;11.950;2023-03-08T10:00:41;99373.28;;;3.56;100.00
13015;BME280;6573;57.696;11.950;2023-03-08T10:07:09;99378.53;;;4.02;100.00
13015;BME280;6573;57.696;11.950;2023-03-08T10:10:20;99319.56;;;3.79;100.00
13015;BME280;6573;57.696;11.950;2023-03-08T10:13:30;99360.28;;;4.44;100.00
13015;BME280;6573;57.696;11.950;2023-03-08T10:16:18;99494.75;;;4.93;100.00
13015;BME280;6573;57.696;11.950;2023-03-08T10:19:07;99501.72;;;4.67;100.00
13015;BME280;6573;57.696;11.950;2023-03-08T10:21:49;99505.19;;;4.93;100.00
13015;BME280;6573;57.696;11.950;2023-03-08T10:24:30;99316.94;;;4.02;100.00
13015;BME280;6573;57.696;11.950;2023-03-08T10:27:22;99281.41;;;3.45;100.00
13015;BME280;6573;57.696;11.950;2023-03-08T10:29:58;99359.44;;;4.00;100.00
13015;BME280;6573;57.696;11.950;2023-03-08T10:32:41;99492.06;;;5.30;100.00
13015;BME280;6573;57.696;11.950;2023-03-08T10:35:13;99392.25;;;4.97;100.00
13015;BME280;6573;57.696;11.950;2023-03-08T10:37:57;99396.72;;;4.53;100.00
13015;BME280;6573;57.696;11.950;2023-03-08T10:40:39;99477.41;;;4.74;100.00
13015;BME280;6573;57.696;11.950;2023-03-08T10:43:25;99404.53;;;4.08;100.00
13015;BME280;6573;57.696;11.950;2023-03-08T10:46:10;99362.88;;;3.89;100.00
13015;BME280;6573;57.696;11.950;2023-03-08T10:48:45;99418.41;;;4.28;100.00
13015;BME280;6573;57.696;11.950;2023-03-08T10:51:28;99456.59;;;4.35;100.00
13015;BME280;6573;57.696;11.950;2023-03-08T10:54:04;99522.56;;;4.85;100.00
13015;BME280;6573;57.696;11.950;2023-03-08T10:56:39;99480.88;;;4.79;100.00
13015;BME280;6573;57.696;11.950;2023-03-08T10:59:18;99522.50;;;5.21;100.00
13015;BME280;6573;57.696;11.950;2023-03-08T11:01:52;99529.47;;;5.04;100.00
13015;BME280;6573;57.696;11.950;2023-03-08T11:04:35;99368.13;;;3.86;100.00
13015;BME280;6573;57.696;11.950;2023-03-08T11:07:20;99359.44;;;3.93;100.00
13015;BME280;6573;57.696;11.950;2023-03-08T11:10:15;99464.41;;;4.36;100.00
13015;BME280;6573;57.696;11.950;2023-03-08T11:13:02;99470.47;;;4.31;100.00
13015;BME280;6573;57.696;11.950;2023-03-08T11:15:47;99528.63;;;4.84;100.00
13015;BME280;6573;57.696;11.950;2023-03-08T11:18:39;99535.53;;;5.21;100.00
13015;BME280;6573;57.696;11.950;2023-03-08T11:21:28;99453.97;;;4.77;100.00
13015;BME280;6573;57.696;11.950;2023-03-08T11:24:54;99541.66;;;4.81;100.00
13015;BME280;6573;57.696;11.950;2023-03-08T11:27:50;99434.03;;;4.43;100.00
13015;BME280;6573;57.696;11.950;2023-03-08T11:31:03;99542.50;;;4.54;100.00
13015;BME280;6573;57.696;11.950;2023-03-08T11:34:16;99348.16;;;3.72;100.00
13015;BME280;6573;57.696;11.950;2023-03-08T11:37:06;99543.41;;;4.85;100.00
13015;BME280;6573;57.696;11.950;2023-03-08T11:40:32;99357.69;;;3.96;100.00
13015;BME280;6573;57.696;11.950;2023-03-08T11:43:47;99484.38;;;4.81;100.00
13015;BME280;6573;57.696;11.950;2023-03-08T11:46:51;99355.97;;;4.01;100.00
13015;BME280;6573;57.696;11.950;2023-03-08T11:49:48;99521.59;;;5.29;100.00
13015;BME280;6573;57.696;11.950;2023-03-08T11:52:54;99371.56;;;4.43;100.00
13015;BME280;6573;57.696;11.950;2023-03-08T11:56:01;99489.56;;;4.81;100.00
13015;BME280;6573;57.696;11.950;2023-03-08T11:59:09;99548.53;;;5.46;100.00
13015;BME280;6573;57.696;11.950;2023-03-08T12:02:03;99489.50;;;5.20;100.00
13015;BME280;6573;57.696;11.950;2023-03-08T12:04:54;99349.81;;;4.65;100.00
13015;BME280;6573;57.696;11.950;2023-03-08T12:07:34;99465.03;;;5.52;100.00
13015;BME280;6573;57.696;11.950;2023-03-08T12:10:39;99538.75;;;6.01;100.00
13015;BME280;6573;57.696;11.950;2023-03-08T12:13:35;99366.25;;;4.88;100.00
13015;BME280;6573;57.696;11.950;2023-03-08T12:16:17;99414.03;;;4.72;100.00
13015;BME280;6573;57.696;11.950;2023-03-08T12:19:00;99527.47;;;5.97;100.00
13015;BME280;6573;57.696;11.950;2023-03-08T12:21:54;99347.06;;;5.01;100.00
13015;BME280;6573;57.696;11.950;2023-03-08T12:24:45;99459.63;;;6.00;99.29
13015;BME280;6573;57.696;11.950;2023-03-08T12:27:48;99340.03;;;5.21;98.58
13015;BME280;6573;57.696;11.950;2023-03-08T12:33:46;99475.53;;;5.37;99.68
13015;BME280;6573;57.696;11.950;2023-03-08T12:36:54;99518.59;;;6.25;99.87
13015;BME280;6573;57.696;11.950;2023-03-08T12:39:54;99528.16;;;6.31;100.00
13015;BME280;6573;57.696;11.950;2023-03-08T12:42:33;99451.06;;;5.68;98.25
13015;BME280;6573;57.696;11.950;2023-03-08T12:45:33;99522.25;;;5.97;99.03
13015;BME280;6573;57.696;11.950;2023-03-08T12:48:21;99331.53;;;4.77;98.14
13015;BME280;6573;57.696;11.950;2023-03-08T12:51:02;99416.47;;;5.23;97.45
13015;BME280;6573;57.696;11.950;2023-03-08T12:53:42;99457.25;;;5.47;97.90
13015;BME280;6573;57.696;11.950;2023-03-08T12:56:22;99532.69;;;5.97;97.38
13015;BME280;6573;57.696;11.950;2023-03-08T12:59:00;99472.00;;;5.44;96.65
13015;BME280;6573;57.696;11.950;2023-03-08T13:01:44;99464.91;;;5.82;96.69
13015;BME280;6573;57.696;11.950;2023-03-08T13:04:31;99534.38;;;6.10;92.77
13015;BME280;6573;57.696;11.950;2023-03-08T13:07:23;99367.91;;;5.01;92.18
13015;BME280;6573;57.696;11.950;2023-03-08T13:10:17;99416.34;;;5.54;91.18
13015;BME280;6573;57.696;11.950;2023-03-08T13:13:19;99451.00;;;5.77;90.74
13015;BME280;6573;57.696;11.950;2023-03-08T13:16:19;99463.34;;;5.45;90.66
13015;BME280;6573;57.696;11.950;2023-03-08T13:19:00;99418.41;;;4.58;91.21
13015;BME280;6573;57.696;11.950;2023-03-08T13:21:38;99483.41;;;5.23;93.37
13015;BME280;6573;57.696;11.950;2023-03-08T13:24:34;99346.31;;;4.71;92.21
13015;BME280;6573;57.696;11.950;2023-03-08T13:27:18;99357.59;;;4.77;91.13
13015;BME280;6573;57.696;11.950;2023-03-08T13:29:52;99416.63;;;4.69;90.78
13015;BME280;6573;57.696;11.950;2023-03-08T13:32:26;99377.66;;;4.01;91.59
13015;BME280;6573;57.696;11.950;2023-03-08T13:34:59;99472.19;;;4.74;92.45
13015;BME280;6573;57.696;11.950;2023-03-08T13:37:33;99439.22;;;4.70;93.26
13015;BME280;6573;57.696;11.950;2023-03-08T13:40:13;99435.69;;;4.98;92.83
13015;BME280;6573;57.696;11.950;2023-03-08T13:42:59;99470.44;;;4.97;90.90
13015;BME280;6573;57.696;11.950;2023-03-08T13:45:34;99513.72;;;5.47;91.62
13015;BME280;6573;57.696;11.950;2023-03-08T13:48:12;99375.88;;;4.57;90.28
13015;BME280;6573;57.696;11.950;2023-03-08T13:50:53;99471.25;;;5.10;91.60
13015;BME280;6573;57.696;11.950;2023-03-08T13:53:36;99545.00;;;5.59;91.24
13015;BME280;6573;57.696;11.950;2023-03-08T13:56:33;99395.75;;;4.84;90.78